Time;durP1;ratioP1;P1;durP2;ratioP2;P2;SDS_P1;SDS_P2;PMS_P1;PMS_P2;Temp;Humidity;BMP_temperature;BMP_pressure;BME280_temperature;BME280_humidity;BME280_pressure;Samples;Min_cycle;Max_cycle;Signal;HPM_P1;HPM_P2
2021/04/12 00:00:36;;;;;;;8.85;2.80;;;4.70;74.00;;;;;;5090849;28;20172;-79
2021/04/12 00:03:31;;;;;;;4.45;2.33;;;4.70;74.20;;;;;;5091167;28;20204;-78
2021/04/12 00:06:19;;;;;;;2.80;1.83;;;4.60;74.40;;;;;;5071830;28;20659;-79
2021/04/12 00:08:54;;;;;;;1.90;1.70;;;4.60;74.70;;;;;;5071586;28;20208;-78
2021/04/12 00:11:26;;;;;;;9.52;1.95;;;4.60;74.90;;;;;;5077186;28;20163;-78
2021/04/12 00:14:00;;;;;;;2.08;1.40;;;4.70;74.90;;;;;;5113547;28;20639;-79
2021/04/12 00:16:34;;;;;;;3.97;1.95;;;4.70;74.90;;;;;;5125420;28;20178;-78
2021/04/12 00:19:21;;;;;;;3.08;1.55;;;4.60;75.00;;;;;;5118246;28;20277;-79
2021/04/12 00:21:55;;;;;;;5.65;2.17;;;4.60;75.20;;;;;;5112793;28;20191;-79
2021/04/12 00:24:30;;;;;;;4.43;1.85;;;4.60;75.20;;;;;;5115535;28;20180;-78
2021/04/12 00:27:22;;;;;;;4.20;1.80;;;4.70;75.10;;;;;;5112877;28;20175;-78
2021/04/12 00:29:56;;;;;;;2.20;1.77;;;4.70;75.00;;;;;;5094227;28;20245;-78
2021/04/12 00:32:40;;;;;;;5.65;2.38;;;4.60;75.00;;;;;;5093932;28;20425;-79
2021/04/12 00:35:20;;;;;;;2.75;2.40;;;4.60;75.00;;;;;;5095964;28;20175;-78
2021/04/12 00:37:59;;;;;;;3.63;2.08;;;4.50;75.00;;;;;;5090836;28;20662;-78
2021/04/12 00:40:44;;;;;;;1.98;1.75;;;4.40;75.10;;;;;;5091967;28;20207;-78
2021/04/12 00:43:34;;;;;;;5.07;2.33;;;4.40;75.30;;;;;;5092659;28;20719;-78
2021/04/12 00:46:20;;;;;;;3.95;2.33;;;4.50;75.40;;;;;;5072085;28;20177;-78
2021/04/12 00:48:49;;;;;;;2.53;2.30;;;4.50;75.50;;;;;;5078112;28;20188;-78
2021/04/12 00:51:47;;;;;;;3.13;1.90;;;4.40;75.40;;;;;;5078345;28;20192;-78
2021/04/12 00:54:33;;;;;;;3.53;2.38;;;4.40;75.50;;;;;;5080225;28;20212;-79
2021/04/12 00:57:21;;;;;;;4.65;2.25;;;4.40;75.60;;;;;;5080246;28;20659;-78
2021/04/12 00:59:52;;;;;;;3.92;2.00;;;4.40;75.70;;;;;;5074943;28;20208;-78
2021/04/12 01:02:30;;;;;;;3.05;2.30;;;4.30;75.80;;;;;;5074723;28;20223;-78
2021/04/12 01:05:10;;;;;;;3.15;2.10;;;4.30;76.00;;;;;;5075206;28;20593;-78
2021/04/12 01:08:14;;;;;;;5.35;2.38;;;4.40;76.10;;;;;;5075086;28;20168;-79
2021/04/12 01:10:57;;;;;;;2.20;2.00;;;4.30;76.10;;;;;;5045984;28;20188;-77
2021/04/12 01:14:00;;;;;;;4.88;2.25;;;4.30;76.20;;;;;;5076347;28;20192;-76
2021/04/12 01:16:35;;;;;;;3.28;1.50;;;4.40;76.30;;;;;;5076125;28;20179;-76
2021/04/12 01:19:19;;;;;;;2.97;1.60;;;4.40;76.20;;;;;;5076074;28;20196;-76
2021/04/12 01:22:03;;;;;;;5.85;1.80;;;4.40;76.20;;;;;;5075125;28;20271;-77
2021/04/12 01:24:43;;;;;;;2.10;1.90;;;4.40;76.10;;;;;;5075684;28;20184;-76
2021/04/12 01:27:30;;;;;;;2.10;1.70;;;4.40;76.00;;;;;;5080038;28;20222;-76
2021/04/12 01:30:32;;;;;;;6.18;1.88;;;4.30;76.00;;;;;;5093580;28;20164;-76
2021/04/12 01:33:16;;;;;;;1.95;1.73;;;4.40;76.10;;;;;;5096303;28;20188;-77
2021/04/12 01:36:09;;;;;;;2.72;1.88;;;4.40;76.10;;;;;;5093545;28;20242;-77
2021/04/12 01:38:38;;;;;;;3.05;1.95;;;4.40;76.10;;;;;;5093581;28;20271;-77
2021/04/12 01:41:41;;;;;;;2.97;1.83;;;4.50;76.40;;;;;;5088178;28;20211;-77
2021/04/12 01:44:38;;;;;;;1.90;1.73;;;4.40;76.30;;;;;;5077742;28;20282;-77
2021/04/12 01:47:28;;;;;;;2.53;1.95;;;4.60;76.20;;;;;;5096890;28;20647;-77
2021/04/12 01:50:16;;;;;;;2.90;2.00;;;4.50;76.00;;;;;;5091105;28;20226;-76
2021/04/12 01:53:09;;;;;;;2.35;1.55;;;4.60;75.90;;;;;;5074284;28;20283;-77
2021/04/12 01:55:53;;;;;;;1.35;1.20;;;4.50;75.80;;;;;;5072910;28;20738;-77
2021/04/12 01:58:40;;;;;;;4.22;1.80;;;4.50;75.70;;;;;;5072195;28;20184;-77
2021/04/12 02:01:31;;;;;;;1.58;1.40;;;4.50;76.80;;;;;;5073549;28;20173;-77
2021/04/12 02:04:20;;;;;;;1.45;1.02;;;4.50;76.80;;;;;;5072717;28;20714;-77
2021/04/12 02:07:07;;;;;;;4.60;1.35;;;4.70;76.40;;;;;;5072677;28;20184;-77
2021/04/12 02:09:44;;;;;;;1.60;1.30;;;4.80;76.40;;;;;;5072520;28;20210;-77
2021/04/12 02:12:19;;;;;;;1.35;1.25;;;4.80;76.30;;;;;;5092192;28;20716;-77
2021/04/12 02:15:02;;;;;;;2.97;1.23;;;4.80;76.30;;;;;;5113002;28;20641;-77
2021/04/12 02:17:49;;;;;;;1.58;1.48;;;4.80;76.40;;;;;;5114538;28;20217;-77
2021/04/12 02:20:44;;;;;;;6.28;1.42;;;4.80;76.50;;;;;;5072377;28;20562;-77
2021/04/12 02:23:31;;;;;;;5.80;1.70;;;4.80;76.70;;;;;;5072267;28;20196;-77
2021/04/12 02:26:00;;;;;;;1.77;1.67;;;4.80;76.70;;;;;;5072365;28;20177;-77
2021/04/12 02:28:28;;;;;;;4.13;1.80;;;4.80;76.90;;;;;;5090206;28;20615;-77
2021/04/12 02:31:21;;;;;;;4.15;1.90;;;4.70;77.20;;;;;;5094131;28;20541;-77
2021/04/12 02:33:57;;;;;;;8.32;2.28;;;4.70;77.60;;;;;;5094650;28;20306;-77
2021/04/12 02:36:45;;;;;;;9.05;2.40;;;4.70;78.00;;;;;;5094911;28;20175;-76
2021/04/12 02:39:33;;;;;;;5.75;2.22;;;4.70;78.10;;;;;;5092804;28;20214;-77
2021/04/12 02:42:46;;;;;;;3.00;2.13;;;4.70;78.30;;;;;;5091984;28;20199;-77
2021/04/12 02:45:53;;;;;;;3.47;3.17;;;4.80;78.30;;;;;;5057428;28;20229;-77
2021/04/12 02:48:26;;;;;;;2.78;2.55;;;4.70;78.00;;;;;;5072590;28;20223;-77
2021/04/12 02:51:03;;;;;;;5.32;3.03;;;4.60;77.80;;;;;;5084106;28;20590;-77
2021/04/12 02:53:32;;;;;;;4.70;3.03;;;4.50;77.90;;;;;;5092520;28;20206;-77
2021/04/12 02:56:24;;;;;;;5.50;3.15;;;4.50;78.10;;;;;;5092220;28;20667;-77
2021/04/12 02:59:27;;;;;;;5.63;3.50;;;4.40;78.10;;;;;;5092088;28;20290;-77
2021/04/12 03:02:14;;;;;;;9.57;3.65;;;4.60;78.30;;;;;;5091256;28;20260;-77
2021/04/12 03:05:01;;;;;;;3.95;3.50;;;4.50;78.40;;;;;;5091906;28;20172;-77
2021/04/12 03:07:54;;;;;;;3.63;3.28;;;4.50;78.50;;;;;;5093282;28;20156;-76
2021/04/12 03:11:01;;;;;;;6.63;3.40;;;4.50;78.60;;;;;;5096713;28;20160;-77
2021/04/12 03:14:09;;;;;;;5.25;3.92;;;4.50;78.50;;;;;;5067534;28;20265;-77
2021/04/12 03:17:02;;;;;;;4.93;2.92;;;4.40;78.40;;;;;;5072766;28;20643;-77
2021/04/12 03:19:28;;;;;;;3.42;3.13;;;4.30;78.50;;;;;;5071328;28;20341;-77
2021/04/12 03:22:32;;;;;;;5.77;3.20;;;4.30;78.70;;;;;;5072121;28;20295;-76
2021/04/12 03:25:31;;;;;;;8.88;2.92;;;4.30;78.60;;;;;;5068362;28;20180;-77
2021/04/12 03:28:04;;;;;;;7.78;3.20;;;4.40;78.60;;;;;;5085298;28;20183;-77
2021/04/12 03:30:29;;;;;;;5.30;3.22;;;4.30;78.70;;;;;;5090961;28;20572;-77
2021/04/12 03:33:19;;;;;;;2.90;2.70;;;4.30;79.10;;;;;;5092768;28;20188;-77
2021/04/12 03:35:45;;;;;;;2.55;2.35;;;4.30;79.60;;;;;;5092997;28;20183;-77
2021/04/12 03:38:29;;;;;;;9.57;3.90;;;4.50;79.90;;;;;;5092705;28;20168;-77
2021/04/12 03:41:13;;;;;;;3.67;2.88;;;4.70;79.80;;;;;;5090779;28;20697;-77
2021/04/12 03:44:09;;;;;;;5.28;2.92;;;4.60;79.80;;;;;;5092130;28;20203;-77
2021/04/12 03:46:56;;;;;;;8.02;3.22;;;4.50;80.10;;;;;;5071098;28;20190;-77
2021/04/12 03:49:59;;;;;;;7.38;2.92;;;4.50;80.40;;;;;;5070855;28;20651;-77
2021/04/12 03:52:47;;;;;;;5.45;3.83;;;4.50;80.50;;;;;;5071740;28;20212;-77
2021/04/12 03:55:24;;;;;;;4.68;3.90;;;4.30;80.40;;;;;;5070946;28;20187;-77
2021/04/12 03:58:05;;;;;;;6.72;4.13;;;4.40;80.50;;;;;;5072267;28;20160;-77
2021/04/12 04:00:48;;;;;;;3.63;3.30;;;4.40;80.60;;;;;;5070126;28;20208;-77
2021/04/12 04:03:26;;;;;;;4.55;4.15;;;4.30;80.70;;;;;;5084165;28;20229;-77
2021/04/12 04:06:01;;;;;;;4.78;3.92;;;4.40;80.70;;;;;;5091130;28;20179;-77
2021/04/12 04:08:53;;;;;;;4.55;4.00;;;4.40;80.60;;;;;;5092420;28;20176;-77
2021/04/12 04:11:24;;;;;;;11.60;5.55;;;4.40;80.60;;;;;;5094763;28;20159;-77
2021/04/12 04:14:13;;;;;;;5.15;3.85;;;4.40;80.50;;;;;;5111361;28;20224;-77
2021/04/12 04:17:16;;;;;;;8.75;4.28;;;4.30;80.50;;;;;;5112720;28;20172;-77
2021/04/12 04:20:04;;;;;;;5.00;4.22;;;4.40;80.40;;;;;;5112525;28;20665;-77
2021/04/12 04:22:54;;;;;;;12.93;3.95;;;4.40;80.40;;;;;;5112655;28;20191;-77
2021/04/12 04:25:35;;;;;;;10.77;4.50;;;4.50;80.50;;;;;;5115492;28;20171;-77
2021/04/12 04:28:22;;;;;;;6.15;5.10;;;4.60;80.40;;;;;;5102453;28;20190;-77
2021/04/12 04:31:25;;;;;;;6.00;4.75;;;4.90;79.50;;;;;;5095799;28;20194;-77
2021/04/12 04:34:06;;;;;;;7.30;5.05;;;4.70;79.10;;;;;;5098457;28;20176;-77
2021/04/12 04:36:56;;;;;;;9.10;5.72;;;4.50;79.30;;;;;;5097857;28;20203;-77
2021/04/12 04:39:46;;;;;;;21.75;6.35;;;4.40;79.30;;;;;;5095808;28;20199;-77
2021/04/12 04:42:42;;;;;;;5.00;4.60;;;4.40;79.40;;;;;;5095157;28;20243;-77
2021/04/12 04:45:49;;;;;;;7.25;4.28;;;4.40;79.40;;;;;;5081793;28;20184;-77
2021/04/12 04:48:38;;;;;;;8.15;4.90;;;4.30;79.50;;;;;;5075415;28;20172;-77
2021/04/12 04:51:37;;;;;;;8.57;4.15;;;4.20;79.50;;;;;;5087782;28;20199;-77
2021/04/12 04:54:24;;;;;;;5.75;3.67;;;4.10;79.80;;;;;;5095561;28;20156;-77
2021/04/12 04:57:03;;;;;;;6.97;3.70;;;4.10;79.90;;;;;;5094129;28;20178;-77
2021/04/12 04:59:43;;;;;;;6.60;4.63;;;4.20;79.90;;;;;;5095356;28;20690;-77
2021/04/12 05:02:24;;;;;;;8.05;3.97;;;4.10;79.80;;;;;;5093829;28;20282;-77
2021/04/12 05:05:13;;;;;;;5.22;3.78;;;4.10;79.80;;;;;;5094028;28;20179;-77
2021/04/12 05:08:05;;;;;;;5.40;4.03;;;4.20;79.70;;;;;;5094125;28;20210;-77
2021/04/12 05:10:48;;;;;;;4.38;3.95;;;4.20;79.90;;;;;;5093447;28;20168;-77
2021/04/12 05:13:36;;;;;;;5.10;3.40;;;4.30;80.10;;;;;;5114334;28;20688;-77
2021/04/12 05:16:32;;;;;;;7.50;3.85;;;4.50;80.10;;;;;;5115469;28;20629;-77
2021/04/12 05:19:10;;;;;;;4.53;3.22;;;4.60;79.60;;;;;;5114168;28;20211;-77
2021/04/12 05:21:59;;;;;;;6.32;3.85;;;4.70;79.50;;;;;;5114837;28;20190;-77
2021/04/12 05:24:42;;;;;;;3.22;2.90;;;4.60;79.30;;;;;;5115488;28;20245;-77
2021/04/12 05:27:39;;;;;;;4.35;3.72;;;4.70;79.10;;;;;;5108683;28;20262;-77
2021/04/12 05:30:46;;;;;;;4.93;3.50;;;4.80;78.70;;;;;;5094741;28;20552;-77
2021/04/12 05:33:47;;;;;;;5.75;3.78;;;4.90;78.50;;;;;;5083819;28;20203;-77
2021/04/12 05:36:57;;;;;;;7.93;3.90;;;5.00;78.10;;;;;;5094695;28;20176;-77
2021/04/12 05:39:50;;;;;;;4.80;3.50;;;5.00;77.80;;;;;;4996244;28;20233;-77
2021/04/12 05:42:35;;;;;;;5.63;4.25;;;5.20;77.60;;;;;;4995652;28;20689;-77
2021/04/12 05:45:00;;;;;;;9.50;4.88;;;5.20;77.20;;;;;;5075681;28;20256;-77
2021/04/12 05:47:48;;;;;;;10.60;4.90;;;5.20;77.00;;;;;;5093727;28;20623;-77
2021/04/12 05:50:20;;;;;;;9.63;4.35;;;5.10;76.80;;;;;;5087361;28;20299;-77
2021/04/12 05:53:04;;;;;;;6.35;4.45;;;5.30;76.90;;;;;;5074054;28;20196;-76
2021/04/12 05:55:44;;;;;;;9.15;5.85;;;5.40;76.30;;;;;;5073543;28;20189;-77
2021/04/12 05:58:13;;;;;;;9.88;4.55;;;5.60;76.00;;;;;;5075279;28;20259;-77
2021/04/12 06:01:09;;;;;;;7.13;4.25;;;5.70;75.40;;;;;;5074037;28;20191;-78
2021/04/12 06:03:51;;;;;;;8.77;4.05;;;5.70;75.10;;;;;;5073567;28;20565;-77
2021/04/12 06:06:41;;;;;;;9.23;4.28;;;5.70;74.50;;;;;;5091661;28;20172;-77
2021/04/12 06:09:16;;;;;;;4.13;3.63;;;5.70;74.00;;;;;;5092923;28;20261;-77
2021/04/12 06:11:57;;;;;;;3.05;2.55;;;5.70;73.40;;;;;;5098406;28;20286;-77
2021/04/12 06:14:29;;;;;;;4.10;2.97;;;6.30;72.60;;;;;;5113088;28;20179;-78
2021/04/12 06:17:08;;;;;;;4.82;2.25;;;7.00;71.60;;;;;;5114711;28;20220;-77
2021/04/12 06:19:59;;;;;;;4.30;1.60;;;8.20;69.90;;;;;;5115319;28;20195;-78
2021/04/12 06:22:40;;;;;;;2.38;1.20;;;9.30;65.80;;;;;;5112580;28;20198;-78
2021/04/12 06:25:27;;;;;;;3.38;1.50;;;10.60;61.50;;;;;;5114135;28;20216;-78
2021/04/12 06:28:30;;;;;;;3.25;2.00;;;12.30;57.80;;;;;;5100040;28;20650;-78
2021/04/12 06:31:25;;;;;;;5.00;2.33;;;13.70;51.70;;;;;;5093195;28;20309;-79
2021/04/12 06:34:18;;;;;;;6.35;2.05;;;14.00;47.50;;;;;;5093969;28;20164;-78
2021/04/12 06:37:00;;;;;;;4.03;1.40;;;12.50;47.40;;;;;;5092311;28;20172;-78
2021/04/12 06:39:35;;;;;;;4.20;1.60;;;11.50;49.20;;;;;;5093760;28;20183;-78
2021/04/12 06:42:32;;;;;;;3.50;1.65;;;11.10;50.70;;;;;;5091686;28;20206;-78
2021/04/12 06:45:22;;;;;;;9.10;2.33;;;11.00;52.50;;;;;;5079600;28;20176;-78
2021/04/12 06:47:57;;;;;;;4.57;1.90;;;10.90;53.40;;;;;;5071896;28;20223;-78
2021/04/12 06:50:37;;;;;;;3.03;2.35;;;10.70;53.50;;;;;;5071612;28;20611;-78
2021/04/12 06:53:39;;;;;;;3.13;1.95;;;11.00;54.50;;;;;;5071793;28;20252;-78
2021/04/12 06:56:23;;;;;;;6.32;2.13;;;11.90;53.70;;;;;;5071787;28;20325;-78
2021/04/12 06:59:07;;;;;;;5.15;2.22;;;12.00;51.70;;;;;;5072768;28;20591;-78
2021/04/12 07:01:45;;;;;;;4.40;2.15;;;12.30;51.30;;;;;;5072431;28;20195;-78
2021/04/12 07:04:49;;;;;;;4.63;2.38;;;12.60;50.90;;;;;;5073000;28;20172;-78
2021/04/12 07:07:36;;;;;;;4.18;2.88;;;12.60;50.50;;;;;;5071458;28;20181;-78
2021/04/12 07:10:45;;;;;;;5.85;2.17;;;11.80;50.20;;;;;;5080766;28;20252;-78
2021/04/12 07:13:25;;;;;;;5.63;2.25;;;11.00;51.80;;;;;;5057423;28;20675;-78
2021/04/12 07:16:09;;;;;;;3.97;1.63;;;10.30;54.10;;;;;;5073393;28;20586;-78
2021/04/12 07:19:02;;;;;;;3.63;2.00;;;9.80;55.10;;;;;;5072571;28;20287;-78
2021/04/12 07:21:52;;;;;;;3.42;1.80;;;9.40;57.10;;;;;;5076130;28;20180;-78
2021/04/12 07:24:36;;;;;;;1.63;1.40;;;9.10;57.90;;;;;;5091606;28;20267;-78
2021/04/12 07:27:49;;;;;;;3.83;1.80;;;8.80;59.20;;;;;;5092727;28;20199;-78
2021/04/12 07:30:42;;;;;;;2.67;2.47;;;8.80;60.20;;;;;;5068226;28;20249;-78
2021/04/12 07:33:28;;;;;;;4.57;2.50;;;9.00;60.70;;;;;;5092810;28;20227;-78
2021/04/12 07:36:25;;;;;;;4.00;2.38;;;9.00;60.70;;;;;;5092125;28;20182;-78
2021/04/12 07:39:28;;;;;;;3.47;2.00;;;8.60;60.50;;;;;;5094796;28;20203;-79
2021/04/12 07:42:02;;;;;;;6.00;2.55;;;8.70;61.40;;;;;;5096139;28;20203;-79
2021/04/12 07:45:02;;;;;;;2.42;2.05;;;8.80;60.80;;;;;;5093340;28;20171;-78
2021/04/12 07:47:51;;;;;;;3.33;2.05;;;8.70;61.10;;;;;;5091429;28;20180;-78
2021/04/12 07:50:42;;;;;;;7.63;2.65;;;8.40;61.20;;;;;;5083587;28;20188;-79
2021/04/12 07:53:45;;;;;;;6.20;3.22;;;8.40;62.20;;;;;;5071049;28;20204;-78
2021/04/12 07:56:29;;;;;;;3.70;2.38;;;8.20;61.80;;;;;;5071235;28;20184;-78
2021/04/12 07:59:27;;;;;;;4.95;2.65;;;8.20;62.00;;;;;;5076530;28;20565;-78
2021/04/12 08:02:12;;;;;;;6.18;2.58;;;8.10;62.30;;;;;;5057416;28;20663;-78
2021/04/12 08:04:53;;;;;;;4.00;2.50;;;8.10;62.90;;;;;;5079646;28;20181;-79
2021/04/12 08:07:53;;;;;;;8.80;2.90;;;8.10;63.10;;;;;;5080738;28;20179;-78
2021/04/12 08:10:54;;;;;;;3.38;2.15;;;8.00;63.30;;;;;;5085032;28;20187;-78
2021/04/12 08:13:57;;;;;;;15.55;3.35;;;7.90;63.10;;;;;;5118417;28;20203;-79
2021/04/12 08:16:41;;;;;;;7.80;3.35;;;8.00;63.20;;;;;;5117155;28;20651;-78
2021/04/12 08:19:19;;;;;;;7.88;3.20;;;8.10;62.70;;;;;;5115490;28;20263;-78
2021/04/12 08:22:31;;;;;;;2.95;2.65;;;8.10;62.00;;;;;;5109274;28;20192;-78
2021/04/12 08:25:13;;;;;;;13.63;4.05;;;8.20;62.00;;;;;;5095008;28;20180;-79
2021/04/12 08:28:06;;;;;;;6.75;3.70;;;8.30;62.00;;;;;;5095027;28;20176;-78
2021/04/12 08:30:37;;;;;;;5.80;2.92;;;8.20;61.20;;;;;;5094627;28;20184;-79
2021/04/12 08:33:25;;;;;;;7.13;3.45;;;8.30;60.90;;;;;;5094343;28;20690;-78
2021/04/12 08:36:00;;;;;;;5.43;2.30;;;8.20;60.80;;;;;;5094914;28;20187;-78
2021/04/12 08:38:59;;;;;;;6.38;3.40;;;8.50;61.20;;;;;;5096458;28;20179;-77
2021/04/12 08:41:51;;;;;;;10.40;2.67;;;8.70;59.80;;;;;;5095122;28;20542;-78
2021/04/12 08:44:55;;;;;;;16.60;2.72;;;8.80;58.50;;;;;;5096899;28;20250;-81
2021/04/12 08:48:14;;;;;;;5.03;2.85;;;8.80;58.40;;;;;;5096899;28;20510;-81
2021/04/12 08:51:10;;;;;;;4.07;2.40;;;9.30;57.30;;;;;;4986704;28;20198;-81
2021/04/12 08:53:48;;;;;;;5.35;2.80;;;9.30;55.90;;;;;;5074880;28;20223;-78
2021/04/12 08:56:32;;;;;;;7.25;2.70;;;9.60;54.10;;;;;;5073342;28;20640;-78
2021/04/12 08:59:13;;;;;;;2.60;2.40;;;9.80;53.90;;;;;;5080795;28;20268;-79
2021/04/12 09:01:57;;;;;;;9.48;2.70;;;10.00;53.90;;;;;;5092824;28;20252;-79
2021/04/12 09:04:51;;;;;;;7.03;2.92;;;9.80;52.00;;;;;;5093322;28;20168;-79
2021/04/12 09:07:48;;;;;;;8.25;3.05;;;9.50;51.70;;;;;;5094497;28;20167;-79
2021/04/12 09:10:32;;;;;;;3.45;2.20;;;9.20;51.60;;;;;;5084029;28;20246;-79
2021/04/12 09:13:20;;;;;;;2.75;2.17;;;8.00;56.80;;;;;;5108090;28;20723;-78
2021/04/12 09:16:15;;;;;;;2.17;1.83;;;7.00;62.70;;;;;;5113420;28;20179;-78
2021/04/12 09:19:08;;;;;;;3.25;2.20;;;6.00;68.00;;;;;;5095809;28;20312;-78
2021/04/12 09:22:14;;;;;;;2.80;2.25;;;4.90;72.90;;;;;;5112837;28;20202;-78
2021/04/12 09:25:17;;;;;;;3.10;2.20;;;4.30;76.60;;;;;;5114602;28;20174;-77
2021/04/12 09:27:42;;;;;;;3.47;1.88;;;3.80;78.90;;;;;;5101975;28;20249;-78
2021/04/12 09:30:36;;;;;;;2.13;1.87;;;3.40;80.50;;;;;;5093987;28;20176;-79
2021/04/12 09:33:16;;;;;;;3.70;2.10;;;3.00;82.20;;;;;;5093294;28;20463;-78
2021/04/12 09:36:07;;;;;;;3.85;2.03;;;2.90;84.00;;;;;;5094294;28;20179;-78
2021/04/12 09:38:50;;;;;;;12.20;2.75;;;2.80;84.30;;;;;;5093017;28;20176;-79
2021/04/12 09:41:44;;;;;;;2.45;2.25;;;3.10;84.40;;;;;;5092524;28;20171;-79
2021/04/12 09:44:47;;;;;;;4.53;3.22;;;3.10;84.50;;;;;;5092880;28;20539;-80
2021/04/12 09:47:46;;;;;;;3.28;2.90;;;3.60;84.70;;;;;;5093295;28;20225;-79
2021/04/12 09:50:48;;;;;;;2.70;2.40;;;3.60;84.10;;;;;;5033797;28;1533412;-80
2021/04/12 09:53:39;;;;;;;4.53;2.85;;;3.80;83.90;;;;;;5073686;28;20291;-79
2021/04/12 09:56:43;;;;;;;10.50;4.88;;;4.00;83.80;;;;;;5073602;28;20172;-79
2021/04/12 09:59:33;;;;;;;12.50;4.32;;;4.30;83.30;;;;;;5084548;28;20586;-80
2021/04/12 10:02:29;;;;;;;5.53;4.90;;;4.60;83.00;;;;;;5094546;28;20639;-80
2021/04/12 10:05:16;;;;;;;10.68;4.93;;;5.30;83.10;;;;;;5093147;28;20182;-80
2021/04/12 10:08:12;;;;;;;12.57;5.70;;;5.50;82.50;;;;;;5093703;28;20201;-80
2021/04/12 10:11:00;;;;;;;8.30;5.20;;;6.00;82.10;;;;;;5090551;28;20180;-80
2021/04/12 10:13:56;;;;;;;12.90;4.97;;;6.20;81.70;;;;;;5073517;28;20544;-80
2021/04/12 10:16:26;;;;;;;6.70;4.20;;;6.20;80.70;;;;;;5073189;28;20214;-80
2021/04/12 10:19:13;;;;;;;8.55;5.47;;;6.50;80.90;;;;;;5073911;28;20196;-80
2021/04/12 10:21:57;;;;;;;8.70;5.65;;;6.80;80.00;;;;;;5072141;28;20207;-80
2021/04/12 10:24:27;;;;;;;7.80;4.90;;;6.90;79.40;;;;;;5072800;28;20605;-80
2021/04/12 10:27:14;;;;;;;10.52;5.63;;;7.10;78.40;;;;;;5073159;28;20176;-81
2021/04/12 10:29:53;;;;;;;6.07;5.10;;;7.20;77.00;;;;;;5083494;28;20187;-80
2021/04/12 10:32:30;;;;;;;9.73;6.72;;;7.50;76.00;;;;;;5080813;28;20208;-80
2021/04/12 10:35:08;;;;;;;8.82;6.32;;;7.30;74.80;;;;;;5093289;28;20236;-80
2021/04/12 10:37:58;;;;;;;6.93;5.75;;;7.50;75.40;;;;;;5077368;28;20259;-80
2021/04/12 10:40:46;;;;;;;10.20;6.07;;;7.50;75.80;;;;;;5072409;28;20238;-80
2021/04/12 10:43:32;;;;;;;9.43;5.80;;;7.60;75.90;;;;;;5073964;28;20275;-80
2021/04/12 10:46:15;;;;;;;11.70;5.43;;;7.50;75.80;;;;;;5088300;28;20188;-80
2021/04/12 10:48:44;;;;;;;6.82;5.00;;;7.60;75.30;;;;;;5092523;28;20706;-78
2021/04/12 10:51:23;;;;;;;9.45;5.15;;;7.80;74.50;;;;;;5093293;28;20237;-78
2021/04/12 10:53:52;;;;;;;10.95;5.75;;;7.80;73.50;;;;;;5093643;28;20266;-78
2021/04/12 10:56:24;;;;;;;5.88;4.90;;;8.20;73.90;;;;;;5093971;28;20171;-78
2021/04/12 10:59:31;;;;;;;8.35;4.43;;;8.50;74.00;;;;;;5093054;28;20200;-79
2021/04/12 11:02:21;;;;;;;8.48;4.88;;;8.70;72.70;;;;;;5087439;28;20271;-79
2021/04/12 11:04:53;;;;;;;7.45;4.95;;;8.80;71.10;;;;;;5041951;28;20179;-78
2021/04/12 11:07:29;;;;;;;10.07;5.80;;;8.90;70.00;;;;;;5096938;28;20641;-79
2021/04/12 11:10:37;;;;;;;9.77;5.75;;;8.70;67.70;;;;;;5100872;28;20179;-79
2021/04/12 11:13:05;;;;;;;6.30;4.85;;;8.50;67.10;;;;;;5109928;28;20672;-78
2021/04/12 11:15:46;;;;;;;8.77;5.20;;;8.10;67.30;;;;;;5112421;28;20656;-78
2021/04/12 11:18:26;;;;;;;5.13;4.18;;;7.60;67.40;;;;;;5111821;27;20175;-78
2021/04/12 11:21:17;;;;;;;8.15;4.80;;;6.50;66.90;;;;;;5112593;28;20187;-79
2021/04/12 11:24:11;;;;;;;7.90;5.45;;;5.90;68.40;;;;;;5114996;28;20208;-79
2021/04/12 11:26:39;;;;;;;10.63;5.85;;;5.70;70.30;;;;;;5118973;28;20175;-79
2021/04/12 11:29:11;;;;;;;10.25;6.57;;;5.60;72.20;;;;;;5121301;28;20178;-79
2021/04/12 11:32:21;;;;;;;14.85;7.95;;;5.80;74.00;;;;;;5115628;28;20183;-79
2021/04/12 11:34:56;;;;;;;13.60;7.88;;;6.10;76.30;;;;;;5112382;28;20186;-78
2021/04/12 11:37:30;;;;;;;16.88;8.52;;;6.40;77.90;;;;;;5077448;28;20275;-78
2021/04/12 11:40:21;;;;;;;11.05;7.82;;;6.40;78.20;;;;;;5071631;28;20333;-78
2021/04/12 11:42:58;;;;;;;15.82;8.50;;;6.60;78.50;;;;;;5071588;28;20196;-78
2021/04/12 11:45:39;;;;;;;11.00;7.55;;;7.00;78.30;;;;;;5073781;28;20169;-78
2021/04/12 11:48:14;;;;;;;12.93;8.25;;;7.10;76.10;;;;;;5073511;28;20179;-78
2021/04/12 11:50:59;;;;;;;11.73;8.63;;;6.80;75.30;;;;;;5071020;28;20207;-79
2021/04/12 11:53:39;;;;;;;11.48;7.10;;;7.20;75.30;;;;;;5072347;28;20230;-78
2021/04/12 11:56:19;;;;;;;12.32;6.93;;;7.30;75.50;;;;;;5093395;28;20205;-79
2021/04/12 11:59:03;;;;;;;14.90;8.10;;;7.40;76.00;;;;;;5092176;28;20275;-78
2021/04/12 12:01:57;;;;;;;23.35;8.15;;;7.50;74.90;;;;;;5093302;28;20698;-79
2021/04/12 12:04:44;;;;;;;11.18;8.20;;;7.50;74.00;;;;;;5091966;28;20183;-79
2021/04/12 12:07:21;;;;;;;9.55;7.00;;;7.90;74.40;;;;;;5093940;28;20192;-78
2021/04/12 12:09:50;;;;;;;11.20;6.07;;;7.70;73.00;;;;;;5095584;28;20270;-79
2021/04/12 12:12:43;;;;;;;11.98;6.90;;;7.90;72.90;;;;;;5102937;28;20734;-79
2021/04/12 12:15:39;;;;;;;12.65;6.80;;;8.30;73.20;;;;;;5096448;28;20225;-79
2021/04/12 12:18:23;;;;;;;8.50;6.35;;;8.20;70.80;;;;;;5091100;28;20179;-79
2021/04/12 12:21:01;;;;;;;12.30;6.68;;;8.00;69.00;;;;;;5092942;28;20348;-80
2021/04/12 12:23:33;;;;;;;8.40;6.90;;;7.80;68.20;;;;;;5093968;28;20195;-79
2021/04/12 12:26:01;;;;;;;7.82;5.60;;;7.80;69.00;;;;;;5093441;28;20655;-79
2021/04/12 12:28:47;;;;;;;11.52;6.15;;;8.00;69.30;;;;;;5093947;28;20172;-79
2021/04/12 12:31:32;;;;;;;7.80;6.07;;;8.30;69.00;;;;;;5090653;28;20510;-79
2021/04/12 12:34:11;;;;;;;10.13;6.30;;;8.50;67.50;;;;;;5092005;28;20270;-79
2021/04/12 12:37:08;;;;;;;8.55;5.40;;;8.60;65.80;;;;;;5098568;28;20172;-79
2021/04/12 12:39:40;;;;;;;8.70;5.55;;;9.10;66.30;;;;;;5063607;28;20207;-78
2021/04/12 12:42:14;;;;;;;9.15;5.20;;;9.30;64.40;;;;;;5099504;28;20200;-79
2021/04/12 12:44:43;;;;;;;6.75;5.60;;;9.00;62.50;;;;;;5104645;28;20180;-79
2021/04/12 12:47:12;;;;;;;9.70;5.90;;;8.80;60.80;;;;;;5103830;28;20183;-79
2021/04/12 12:49:56;;;;;;;7.78;5.50;;;8.70;60.40;;;;;;5103664;28;20183;-79
2021/04/12 12:52:33;;;;;;;5.38;4.85;;;8.80;60.20;;;;;;5102475;28;20255;-79
2021/04/12 12:55:02;;;;;;;11.88;5.47;;;9.10;59.50;;;;;;5101584;28;20538;-78
2021/04/12 12:57:40;;;;;;;7.20;4.07;;;9.00;58.40;;;;;;5099735;28;20278;-79
2021/04/12 13:00:40;;;;;;;5.97;4.10;;;8.90;56.60;;;;;;5100170;28;20291;-80
2021/04/12 13:03:27;;;;;;;5.93;4.30;;;8.70;55.00;;;;;;5099091;28;20219;-79
2021/04/12 13:05:55;;;;;;;4.47;3.67;;;8.60;55.50;;;;;;5108663;28;20191;-79
2021/04/12 13:08:29;;;;;;;4.10;3.40;;;8.70;55.00;;;;;;5110476;28;20172;-79
2021/04/12 13:10:56;;;;;;;4.45;3.78;;;8.50;52.60;;;;;;5100914;28;20178;-79
2021/04/12 13:13:36;;;;;;;4.78;3.60;;;8.40;52.30;;;;;;5101072;28;20238;-79
2021/04/12 13:16:21;;;;;;;3.08;2.67;;;8.70;53.00;;;;;;5099063;28;20230;-79
2021/04/12 13:18:56;;;;;;;4.97;3.13;;;8.50;51.90;;;;;;5100016;28;20199;-79
2021/04/12 13:21:33;;;;;;;4.43;4.03;;;8.60;52.50;;;;;;5098151;28;20182;-79
2021/04/12 13:24:26;;;;;;;6.75;3.90;;;8.60;52.30;;;;;;5098635;28;20649;-79
2021/04/12 13:27:14;;;;;;;5.43;3.33;;;8.70;53.30;;;;;;5098412;28;20202;-79
2021/04/12 13:29:57;;;;;;;4.93;3.70;;;9.00;53.00;;;;;;5098159;28;20164;-79
2021/04/12 13:32:37;;;;;;;3.60;2.83;;;8.90;51.60;;;;;;5097179;28;20194;-80
2021/04/12 13:35:17;;;;;;;7.20;3.60;;;8.80;49.90;;;;;;5097756;28;20176;-79
2021/04/12 13:38:05;;;;;;;4.43;3.47;;;8.80;50.50;;;;;;5098313;28;20195;-79
2021/04/12 13:41:07;;;;;;;3.92;3.50;;;8.60;50.20;;;;;;5097403;28;20290;-79
2021/04/12 13:43:38;;;;;;;4.20;3.80;;;8.40;50.00;;;;;;5097840;28;20340;-79
2021/04/12 13:46:18;;;;;;;3.38;2.78;;;8.40;51.00;;;;;;5098564;28;20168;-79
2021/04/12 13:48:50;;;;;;;3.58;3.25;;;8.60;50.60;;;;;;5097467;28;20488;-79
2021/04/12 13:51:27;;;;;;;10.80;4.18;;;8.60;49.70;;;;;;5103182;28;20195;-79
2021/04/12 13:53:57;;;;;;;3.78;3.45;;;8.50;50.70;;;;;;5112235;28;20205;-79
2021/04/12 13:56:27;;;;;;;12.18;3.83;;;8.40;51.20;;;;;;5113478;28;20233;-80
2021/04/12 13:58:59;;;;;;;5.28;3.58;;;8.50;51.30;;;;;;5111289;28;20366;-79
2021/04/12 14:01:35;;;;;;;5.43;3.40;;;8.30;50.80;;;;;;5106968;28;20185;-79
2021/04/12 14:04:25;;;;;;;9.40;4.30;;;8.10;51.40;;;;;;5106736;28;20170;-79
2021/04/12 14:06:55;;;;;;;4.15;3.20;;;8.20;52.20;;;;;;5098988;28;20176;-78
2021/04/12 14:09:27;;;;;;;3.53;3.22;;;8.40;51.90;;;;;;5114040;28;20168;-79
2021/04/12 14:11:57;;;;;;;6.13;3.00;;;8.20;50.70;;;;;;5116026;28;20194;-79
2021/04/12 14:14:28;;;;;;;9.38;3.25;;;8.20;50.20;;;;;;5119980;28;20179;-79
2021/04/12 14:17:39;;;;;;;4.50;3.45;;;8.00;50.90;;;;;;5118866;28;20187;-79
2021/04/12 14:20:31;;;;;;;4.13;3.65;;;7.80;51.90;;;;;;5038232;28;20215;-79
2021/04/12 14:23:02;;;;;;;5.90;3.72;;;7.80;52.70;;;;;;5099413;28;20229;-79
2021/04/12 14:25:40;;;;;;;3.92;3.53;;;7.90;53.50;;;;;;5097614;28;20191;-79
2021/04/12 14:28:21;;;;;;;5.10;3.20;;;7.90;52.80;;;;;;5098754;28;20631;-79
2021/04/12 14:31:25;;;;;;;8.25;3.75;;;7.80;52.30;;;;;;5095541;28;20172;-79